Classifiche di sempre
Migliori tempi personali validi di team tra tutti gli eventi e le stagioni. Ogni team compare una sola volta per divisione.
Cerca per nome e apri la pagina in cui è classificato questo record di divisione.
137,494 team in classifica
| Pos. | Pos. AG | Team | Nazionalità | Categoria età | TempoMiglior tempo | Distacco |
|---|---|---|---|---|---|---|
| 9476 | #948 | Aida López & Adelaida MariñoESP · W 40-44 · AG #948 | ESP | W 40-44 | 1:12:03 | +18:42 |
| 9477 | -- | Lena Bachmann & Ulla HacheGER · W WU29 | GER | W WU29 | 1:12:03 | +18:42 |
| 9478 | #949 | Liv Hackmann & Jenn StackUSA · W 40-44 · AG #949 | USA | W 40-44 | 1:12:03 | +18:42 |
| 9479 | -- | Karen Alvarez & Caroline MaukUSA · W WU29 | USA | W WU29 | 1:12:03 | +18:42 |
| 9480 | #1647 | Kendra Kerr & Haley BannisterCAN · W 25-29 · AG #1647 | CAN | W 25-29 | 1:12:03 | +18:42 |
| 9481 | #727 | Sophie Thomson & Carrie PaxtonGBR · W 16-24 · AG #727 | GBR | W 16-24 | 1:12:03 | +18:42 |
| 9482 | #3290 | Elise DOUAILIN & Marion GAUTIERFRA · W 30-34 · AG #3290 | FRA | W 30-34 | 1:12:03 | +18:42 |
| 9483 | #3291 | Crespo Danièle & Fanny ReignierFRA · W 30-34 · AG #3291 | FRA | W 30-34 | 1:12:03 | +18:42 |
| 9484 | #728 | Scarlett Irons & Emma JamesGBR · W 16-24 · AG #728 | GBR | W 16-24 | 1:12:03 | +18:42 |
| 9485 | #726 | Megan Parker & Alexandra InghamGBR · W 16-24 · AG #726 | GBR | W 16-24 | 1:12:03 | +18:42 |
| 9486 | #950 | Yolande Erasmus & Inge LoubserRSA · W 40-44 · AG #950 | RSA | W 40-44 | 1:12:03 | +18:42 |
| 9487 | #729 | Charlize Stephenson & Izzy MolinaroAUS · W 16-24 · AG #729 | AUS | W 16-24 | 1:12:03 | +18:42 |
| 9488 | #869 | Maaike de Rooij & Adrienne DamenNED · W 35-39 · AG #869 | NED | W 35-39 | 1:12:03 | +18:42 |
| 9489 | #870 | Karla Krystell Martínez Salinas & Landy Sofía GordilloMEX · W 35-39 · AG #870 | MEX | W 35-39 | 1:12:03 | +18:42 |
| 9490 | #871 | Adrienne Damen & Maaike de RooijNED · W 35-39 · AG #871 | NED | W 35-39 | 1:12:03 | +18:42 |
| 9491 | #3292 | Camille Coin & Camille ZivFRA · W 30-34 · AG #3292 | FRA | W 30-34 | 1:12:03 | +18:42 |
| 9492 | #872 | Bianca Luchiari & Flavia Catherino LemmaBRA · W 35-39 · AG #872 | BRA | W 35-39 | 1:12:03 | +18:42 |
| 9493 | #1648 | Alaw Owen & Shannon OwenGBR · W 25-29 · AG #1648 | GBR | W 25-29 | 1:12:03 | +18:42 |
| 9494 | #3293 | Sina Haaga & Katharina RebstockGER · W 30-34 · AG #3293 | GER | W 30-34 | 1:12:04 | +18:43 |
| 9495 | #1649 | Mara Glas & Hannah FronzekGER · W 25-29 · AG #1649 | GER | W 25-29 | 1:12:04 | +18:43 |
| 9496 | #3294 | Laura Ormrod & Alice SwallowGBR · W 30-34 · AG #3294 | GBR | W 30-34 | 1:12:04 | +18:43 |
| 9497 | #3295 | Anita Norris & Paola CastanedaW 30-34 · AG #3295 | -- | W 30-34 | 1:12:04 | +18:43 |
| 9498 | #3296 | Liisa Partanen & Elisa HaverinenFIN · W 30-34 · AG #3296 | FIN | W 30-34 | 1:12:04 | +18:43 |
| 9499 | #1650 | Beth Thomson & Camelia BentaharW 25-29 · AG #1650 | -- | W 25-29 | 1:12:04 | +18:43 |
| 9500 | #1651 | Grace Desanctis & Meaghan SnyderUSA · W 25-29 · AG #1651 | USA | W 25-29 | 1:12:04 | +18:43 |
Pagina 380 di 5,500